Time;durP1;ratioP1;P1;durP2;ratioP2;P2;SDS_P1;SDS_P2;PMS_P1;PMS_P2;Temp;Humidity;BMP_temperature;BMP_pressure;BME280_temperature;BME280_humidity;BME280_pressure;Samples;Min_cycle;Max_cycle;Signal;HPM_P1;HPM_P2
2021/07/09 00:02:11;;;;;;;6.13;4.10;;;;;;;23.87;94.50;98244.97;5058002;28;20208;-71
2021/07/09 00:04:38;;;;;;;6.00;3.53;;;;;;;24.05;90.01;98252.53;5059506;28;20209;-71
2021/07/09 00:07:06;;;;;;;6.93;4.37;;;;;;;23.88;92.32;98261.06;5055081;28;20210;-71
2021/07/09 00:09:33;;;;;;;6.27;3.97;;;;;;;23.59;94.39;98264.69;5057205;28;20225;-70
2021/07/09 00:12:01;;;;;;;4.10;3.70;;;;;;;23.79;92.34;98265.44;5055528;28;20206;-70
2021/07/09 00:14:31;;;;;;;7.40;3.93;;;;;;;23.28;95.52;98274.03;5064565;28;20248;-70
2021/07/09 00:16:58;;;;;;;9.10;4.23;;;;;;;23.94;92.64;98270.03;5057811;28;20220;-73
2021/07/09 00:19:27;;;;;;;6.57;3.60;;;;;;;23.59;91.93;98275.59;5057506;28;20199;-71
2021/07/09 00:21:56;;;;;;;7.07;3.30;;;;;;;23.87;90.75;98270.31;5057388;28;20202;-71
2021/07/09 00:24:23;;;;;;;4.20;3.57;;;;;;;24.51;87.64;98262.88;5063186;28;20237;-70
2021/07/09 00:26:50;;;;;;;7.23;3.83;;;;;;;24.52;88.48;98275.41;5050477;28;20206;-70
2021/07/09 00:29:18;;;;;;;5.87;3.60;;;;;;;23.73;88.80;98287.53;5060476;28;20226;-69
2021/07/09 00:31:45;;;;;;;5.47;3.60;;;;;;;24.53;85.90;98287.97;5055222;28;20321;-70
2021/07/09 00:34:12;;;;;;;5.40;3.40;;;;;;;24.49;86.24;98278.72;5063075;28;20233;-70
2021/07/09 00:36:41;;;;;;;5.00;3.53;;;;;;;23.94;87.80;98283.66;5062030;28;20207;-70
2021/07/09 00:39:09;;;;;;;3.67;3.23;;;;;;;24.19;89.08;98273.47;5057220;28;20207;-69
2021/07/09 00:41:37;;;;;;;5.20;3.30;;;;;;;24.01;90.03;98284.19;5067907;28;20207;-70
2021/07/09 00:44:04;;;;;;;6.57;3.63;;;;;;;23.81;89.48;98281.53;5059483;28;20230;-71
2021/07/09 00:46:36;;;;;;;4.30;3.90;;;;;;;23.16;91.80;98279.75;5069145;28;20198;-71
2021/07/09 00:49:05;;;;;;;5.77;3.83;;;;;;;23.28;93.44;98280.31;5054224;28;20686;-71
2021/07/09 00:51:32;;;;;;;6.00;3.50;;;;;;;23.34;93.27;98273.75;5067940;28;20206;-71
2021/07/09 00:54:01;;;;;;;6.27;3.87;;;;;;;23.32;93.81;98281.41;5069183;28;20226;-71
2021/07/09 00:56:29;;;;;;;6.53;3.80;;;;;;;23.79;92.53;98264.63;5060553;28;20208;-71
2021/07/09 00:58:56;;;;;;;5.23;4.00;;;;;;;23.46;92.69;98268.81;5062615;28;20193;-70
2021/07/09 01:01:23;;;;;;;6.67;3.97;;;;;;;23.42;92.90;98261.50;5062687;28;20245;-70
2021/07/09 01:03:51;;;;;;;5.30;4.00;;;;;;;22.90;96.44;98261.00;5055152;28;20245;-69
2021/07/09 01:06:18;;;;;;;5.07;4.03;;;;;;;23.92;89.89;98262.13;5053988;28;20210;-70
2021/07/09 01:08:46;;;;;;;5.83;3.50;;;;;;;23.89;88.87;98264.59;5053773;28;20230;-70
2021/07/09 01:11:15;;;;;;;7.53;3.87;;;;;;;23.68;91.13;98257.59;5053475;28;20214;-69
2021/07/09 01:13:42;;;;;;;4.37;3.80;;;;;;;23.52;92.41;98254.09;5055603;28;20225;-69
2021/07/09 01:16:11;;;;;;;5.10;3.50;;;;;;;23.34;93.45;98246.53;5061694;28;20213;-69
2021/07/09 01:18:39;;;;;;;6.87;4.20;;;;;;;23.00;97.36;98248.19;5059330;28;20224;-69
2021/07/09 01:21:08;;;;;;;6.57;4.17;;;;;;;22.93;96.57;98236.78;5060541;28;20213;-69
2021/07/09 01:23:36;;;;;;;5.93;4.23;;;;;;;23.13;95.13;98233.19;5058806;28;20238;-69
2021/07/09 01:26:05;;;;;;;7.87;4.50;;;;;;;22.97;95.28;98243.31;5057621;28;20210;-69
2021/07/09 01:28:32;;;;;;;7.87;4.50;;;;;;;22.93;95.35;98244.13;5055943;28;20222;-69
2021/07/09 01:31:00;;;;;;;5.77;4.57;;;;;;;23.56;91.77;98235.28;5060754;28;20680;-69
2021/07/09 01:33:27;;;;;;;6.13;4.43;;;;;;;23.51;91.59;98233.38;5058516;28;20830;-70
2021/07/09 01:35:55;;;;;;;7.93;4.80;;;;;;;23.43;91.74;98244.03;5060038;28;20210;-70
2021/07/09 01:38:22;;;;;;;5.47;4.20;;;;;;;23.70;91.58;98237.13;5057606;28;20209;-69
2021/07/09 01:40:49;;;;;;;7.33;4.60;;;;;;;23.11;93.15;98247.06;5057171;28;20680;-70
2021/07/09 01:43:18;;;;;;;5.70;4.50;;;;;;;22.49;96.21;98253.94;5059005;28;20222;-70
2021/07/09 01:45:45;;;;;;;6.47;3.90;;;;;;;23.44;91.15;98242.94;5069854;28;20205;-70
2021/07/09 01:48:13;;;;;;;6.70;4.00;;;;;;;23.47;91.16;98242.41;5062429;28;20217;-70
2021/07/09 01:50:40;;;;;;;6.30;3.77;;;;;;;22.23;98.28;98239.44;5056513;28;20202;-68
2021/07/09 01:53:07;;;;;;;5.40;3.40;;;;;;;22.79;95.05;98248.47;5068079;28;20221;-70
2021/07/09 01:55:35;;;;;;;5.73;3.63;;;;;;;23.11;92.56;98244.34;5059272;28;20206;-70
2021/07/09 01:58:02;;;;;;;4.87;3.50;;;;;;;22.68;95.19;98244.13;5052918;28;20690;-67
2021/07/09 02:00:31;;;;;;;6.30;3.53;;;;;;;22.89;93.47;98245.75;5053133;28;20213;-70
2021/07/09 02:02:58;;;;;;;4.67;3.17;;;;;;;23.69;89.67;98227.34;5062141;28;20225;-71
2021/07/09 02:05:26;;;;;;;5.23;3.13;;;;;;;23.24;91.03;98237.56;5052947;28;20205;-70
2021/07/09 02:07:55;;;;;;;7.00;3.10;;;;;;;23.22;91.80;98237.03;5069552;28;20197;-70
2021/07/09 02:10:24;;;;;;;4.90;3.40;;;;;;;23.47;89.89;98232.31;5058564;28;20229;-70
2021/07/09 02:12:54;;;;;;;4.43;3.40;;;;;;;23.11;91.20;98243.56;5053317;28;20618;-70
2021/07/09 02:15:23;;;;;;;6.97;3.50;;;;;;;23.36;90.71;98244.34;5069579;28;20201;-70
2021/07/09 02:17:52;;;;;;;5.27;3.17;;;;;;;23.51;87.40;98238.84;5057857;28;20205;-70
2021/07/09 02:20:21;;;;;;;4.27;3.20;;;;;;;23.80;88.63;98236.25;5053723;28;20205;-71
2021/07/09 02:22:48;;;;;;;4.43;3.10;;;;;;;24.00;86.66;98237.03;5053226;28;20233;-71
2021/07/09 02:25:16;;;;;;;5.37;3.30;;;;;;;23.46;89.33;98243.50;5063015;28;20210;-70
2021/07/09 02:27:49;;;;;;;4.80;3.30;;;;;;;24.09;86.76;98243.53;5053055;28;20202;-70
2021/07/09 02:30:17;;;;;;;6.33;3.50;;;;;;;24.00;84.66;98242.47;5052195;28;20594;-70
2021/07/09 02:32:45;;;;;;;4.50;3.20;;;;;;;24.01;84.72;98237.84;5062009;28;20219;-69
2021/07/09 02:35:16;;;;;;;3.30;3.00;;;;;;;23.87;84.64;98250.41;5053624;28;20821;-69
2021/07/09 02:37:43;;;;;;;4.33;3.17;;;;;;;23.95;85.34;98253.41;5057615;28;20206;-71
2021/07/09 02:40:13;;;;;;;5.93;3.70;;;;;;;24.16;83.43;98251.38;5053303;28;20232;-71
2021/07/09 02:42:41;;;;;;;7.20;3.97;;;;;;;23.52;88.08;98250.56;5052356;28;20228;-70
2021/07/09 02:45:09;;;;;;;4.93;3.40;;;;;;;24.02;84.43;98248.44;5052050;28;20214;-70
2021/07/09 02:47:37;;;;;;;4.47;3.17;;;;;;;24.12;84.72;98255.78;5064044;28;20647;-70
2021/07/09 02:50:06;;;;;;;6.60;3.10;;;;;;;24.01;83.77;98249.56;5055237;28;20226;-70
2021/07/09 02:52:34;;;;;;;4.30;3.17;;;;;;;24.03;85.27;98246.56;5055214;28;20205;-68
2021/07/09 02:55:02;;;;;;;4.43;3.40;;;;;;;23.51;88.19;98251.66;5058816;28;20297;-70
2021/07/09 02:57:29;;;;;;;5.00;2.97;;;;;;;23.82;86.57;98253.16;5057696;28;20193;-69
2021/07/09 02:59:57;;;;;;;4.73;3.03;;;;;;;23.51;86.25;98251.66;5054825;28;20209;-69
2021/07/09 03:02:24;;;;;;;6.07;3.43;;;;;;;23.48;88.79;98255.75;5054340;28;20205;-70
2021/07/09 03:04:52;;;;;;;5.07;3.40;;;;;;;23.57;85.75;98256.00;5050325;28;20201;-70
2021/07/09 03:07:19;;;;;;;4.93;3.47;;;;;;;23.79;85.86;98257.28;5059564;28;20209;-70
2021/07/09 03:09:47;;;;;;;6.23;3.70;;;;;;;23.72;87.53;98256.72;5055581;28;20221;-70
2021/07/09 03:12:15;;;;;;;5.37;3.30;;;;;;;23.36;88.34;98252.50;5055804;28;20653;-69
2021/07/09 03:14:42;;;;;;;4.70;3.40;;;;;;;23.63;86.54;98257.59;5060676;28;20205;-70
2021/07/09 03:17:09;;;;;;;3.63;3.17;;;;;;;23.12;88.89;98273.25;5055296;28;20206;-70
2021/07/09 03:19:36;;;;;;;8.17;3.30;;;;;;;22.70;90.63;98258.28;5054199;28;20576;-68
2021/07/09 03:22:04;;;;;;;5.70;3.60;;;;;;;22.96;89.18;98270.78;5053992;28;20206;-68
2021/07/09 03:24:31;;;;;;;4.83;3.20;;;;;;;23.09;89.72;98268.31;5051541;28;20592;-68
2021/07/09 03:27:00;;;;;;;7.50;3.40;;;;;;;23.56;87.23;98268.78;5055360;28;20684;-70
2021/07/09 03:29:27;;;;;;;4.43;3.50;;;;;;;22.93;88.63;98263.16;5054863;28;20225;-71
2021/07/09 03:31:55;;;;;;;5.73;3.20;;;;;;;23.16;87.66;98266.13;5052278;28;20202;-68
2021/07/09 03:34:22;;;;;;;5.67;3.67;;;;;;;23.28;90.17;98260.44;5051801;28;20229;-67
2021/07/09 03:36:50;;;;;;;5.63;4.53;;;;;;;23.03;88.62;98258.53;5059603;28;20209;-70
2021/07/09 03:39:18;;;;;;;5.97;3.87;;;;;;;22.77;90.86;98264.25;5057016;28;20224;-67
2021/07/09 03:41:45;;;;;;;6.27;4.37;;;;;;;23.39;87.76;98268.31;5056482;28;20667;-70
2021/07/09 03:44:14;;;;;;;7.13;3.77;;;;;;;22.24;92.70;98265.53;5063671;28;20585;-69
2021/07/09 03:46:41;;;;;;;8.23;3.97;;;;;;;22.78;91.08;98274.88;5057764;28;20214;-67
2021/07/09 03:49:09;;;;;;;6.20;4.00;;;;;;;23.06;90.03;98270.78;5053965;28;20759;-70
2021/07/09 03:51:37;;;;;;;7.10;3.93;;;;;;;23.48;87.43;98274.00;5068400;28;20204;-70
2021/07/09 03:54:05;;;;;;;12.63;4.07;;;;;;;23.04;88.87;98278.41;5053537;28;20227;-72
2021/07/09 03:56:32;;;;;;;6.13;3.70;;;;;;;22.93;87.82;98274.06;5055494;28;20285;-71
2021/07/09 03:59:00;;;;;;;5.80;3.47;;;;;;;23.21;88.62;98285.22;5050819;28;20221;-68
2021/07/09 04:01:28;;;;;;;5.87;3.27;;;;;;;22.91;87.38;98274.31;5051013;28;20312;-71
2021/07/09 04:03:56;;;;;;;4.93;3.40;;;;;;;22.86;89.06;98287.13;5051194;28;20240;-71
2021/07/09 04:06:23;;;;;;;5.07;3.63;;;;;;;23.46;86.58;98292.53;5065937;28;20205;-71
2021/07/09 04:08:51;;;;;;;6.07;4.10;;;;;;;23.67;84.92;98294.13;5068504;28;20206;-71
2021/07/09 04:11:18;;;;;;;6.40;3.50;;;;;;;23.51;85.17;98298.78;5064233;28;20217;-70
2021/07/09 04:13:45;;;;;;;4.17;3.40;;;;;;;23.43;84.69;98285.75;5058271;28;20232;-70
2021/07/09 04:16:12;;;;;;;5.93;3.70;;;;;;;22.86;86.49;98289.84;5057910;28;20208;-69
2021/07/09 04:18:41;;;;;;;4.23;3.33;;;;;;;23.34;86.50;98297.44;5054324;28;20237;-72
2021/07/09 04:21:08;;;;;;;7.37;3.23;;;;;;;23.16;85.55;98298.00;5065820;28;20209;-69
2021/07/09 04:23:35;;;;;;;5.80;3.57;;;;;;;23.31;84.62;98308.91;5061103;28;20236;-69
2021/07/09 04:26:02;;;;;;;8.40;3.50;;;;;;;23.70;84.70;98304.44;5056797;28;20210;-70
2021/07/09 04:28:30;;;;;;;4.53;3.40;;;;;;;23.45;83.61;98302.59;5071858;28;20215;-70
2021/07/09 04:30:57;;;;;;;6.50;3.20;;;;;;;23.45;85.09;98299.88;5057872;28;20229;-69
2021/07/09 04:33:24;;;;;;;5.17;3.30;;;;;;;23.87;83.02;98310.41;5054854;28;20232;-70
2021/07/09 04:35:53;;;;;;;3.67;2.90;;;;;;;22.53;88.22;98312.13;5061522;28;20655;-67
2021/07/09 04:38:20;;;;;;;5.67;3.10;;;;;;;23.31;85.67;98306.19;5060954;28;20210;-71
2021/07/09 04:40:48;;;;;;;5.07;3.00;;;;;;;22.87;86.56;98314.09;5061304;28;20682;-69
2021/07/09 04:43:15;;;;;;;4.60;3.10;;;;;;;22.91;87.44;98308.91;5057622;28;20245;-70
2021/07/09 04:45:43;;;;;;;4.97;3.03;;;;;;;22.48;90.95;98304.78;5058829;28;20209;-68
2021/07/09 04:48:10;;;;;;;3.20;2.80;;;;;;;23.19;87.86;98319.25;5056936;28;20216;-68
2021/07/09 04:50:38;;;;;;;4.97;3.23;;;;;;;22.87;89.42;98321.44;5059060;28;20253;-68
2021/07/09 04:53:06;;;;;;;3.73;2.93;;;;;;;22.69;88.70;98321.94;5059619;28;20229;-68
2021/07/09 04:55:33;;;;;;;4.17;2.73;;;;;;;22.86;88.99;98319.78;5064039;28;20217;-68
2021/07/09 04:58:01;;;;;;;4.83;3.20;;;;;;;22.32;90.32;98315.88;5061758;28;20202;-68
2021/07/09 05:00:28;;;;;;;4.00;2.87;;;;;;;23.22;86.71;98321.44;5055494;28;20201;-70
2021/07/09 05:02:58;;;;;;;4.83;2.73;;;;;;;23.74;84.53;98322.72;5064027;28;20230;-70
2021/07/09 05:05:25;;;;;;;5.37;3.10;;;;;;;23.36;83.15;98323.31;5071025;28;20247;-70
2021/07/09 05:07:52;;;;;;;5.53;3.20;;;;;;;23.36;85.03;98336.94;5058606;28;20212;-70
2021/07/09 05:10:21;;;;;;;4.63;3.17;;;;;;;23.53;83.72;98331.19;5064541;28;20231;-68
2021/07/09 05:12:48;;;;;;;4.03;2.90;;;;;;;23.60;83.20;98338.00;5054519;28;20579;-70
2021/07/09 05:15:16;;;;;;;5.53;3.03;;;;;;;23.46;85.07;98331.47;5063640;28;20569;-68
2021/07/09 05:17:43;;;;;;;4.20;2.97;;;;;;;23.24;86.48;98330.97;5053727;28;20213;-69
2021/07/09 05:20:12;;;;;;;4.00;2.83;;;;;;;23.04;87.83;98330.97;5063952;28;20202;-68
2021/07/09 05:22:39;;;;;;;4.33;3.00;;;;;;;22.41;91.56;98334.13;5067123;28;20229;-70
2021/07/09 05:25:07;;;;;;;4.90;2.80;;;;;;;22.65;89.51;98335.28;5068094;28;20201;-68
2021/07/09 05:27:36;;;;;;;4.30;3.10;;;;;;;23.40;85.09;98346.22;5053744;28;20237;-70
2021/07/09 05:30:05;;;;;;;5.57;3.30;;;;;;;22.90;88.26;98346.19;5064028;28;20226;-70
2021/07/09 05:32:32;;;;;;;7.07;3.27;;;;;;;23.57;84.24;98349.44;5063333;28;20236;-70
2021/07/09 05:34:59;;;;;;;4.77;3.40;;;;;;;22.63;86.94;98350.22;5062988;28;20216;-68
2021/07/09 05:37:27;;;;;;;6.70;3.13;;;;;;;23.01;86.33;98356.00;5064088;28;20201;-69
2021/07/09 05:39:54;;;;;;;6.30;3.57;;;;;;;22.70;87.48;98342.66;5056040;28;20202;-78
2021/07/09 05:42:21;;;;;;;3.57;3.17;;;;;;;23.04;86.56;98351.91;5056161;28;20229;-69
2021/07/09 05:44:50;;;;;;;7.60;3.30;;;;;;;23.18;85.93;98356.59;5061098;28;20220;-69
2021/07/09 05:47:17;;;;;;;8.57;3.60;;;;;;;23.62;83.51;98362.25;5066354;28;20206;-70
2021/07/09 05:49:45;;;;;;;4.43;3.20;;;;;;;23.53;82.91;98362.00;5056462;28;20233;-70
2021/07/09 05:52:12;;;;;;;5.63;3.83;;;;;;;23.16;86.91;98366.09;5056923;28;20217;-70
2021/07/09 05:54:40;;;;;;;7.30;3.30;;;;;;;22.94;87.45;98373.69;5054398;28;20244;-69
2021/07/09 05:57:07;;;;;;;6.37;3.10;;;;;;;23.42;86.50;98365.81;5060755;28;20205;-70
2021/07/09 05:59:35;;;;;;;4.00;3.50;;;;;;;23.36;85.62;98377.81;5056313;28;20228;-75
2021/07/09 06:02:04;;;;;;;4.53;3.00;;;;;;;23.11;85.89;98377.78;5062584;28;20224;-69
2021/07/09 06:04:32;;;;;;;5.37;3.80;;;;;;;22.67;89.43;98381.28;5059492;28;20229;-70
2021/07/09 06:06:59;;;;;;;7.37;3.57;;;;;;;22.60;91.47;98383.44;5060254;28;20669;-69
2021/07/09 06:09:26;;;;;;;7.40;3.80;;;;;;;22.96;91.60;98385.94;5056846;28;20205;-69
2021/07/09 06:11:53;;;;;;;7.33;4.33;;;;;;;22.74;93.05;98385.38;5057336;28;20233;-71
2021/07/09 06:14:21;;;;;;;6.00;3.87;;;;;;;23.05;90.05;98386.25;5057688;28;20223;-75
2021/07/09 06:16:48;;;;;;;9.93;4.33;;;;;;;22.61;93.53;98391.34;5057719;28;20206;-72
2021/07/09 06:19:17;;;;;;;6.63;3.97;;;;;;;22.85;92.17;98388.94;5064427;28;20202;-71
2021/07/09 06:21:44;;;;;;;7.77;4.07;;;;;;;23.54;89.52;98392.78;5061173;28;20659;-69
2021/07/09 06:24:11;;;;;;;5.40;4.17;;;;;;;22.60;91.92;98400.56;5059862;28;20603;-69
2021/07/09 06:26:40;;;;;;;5.27;4.00;;;;;;;22.67;93.17;98401.16;5062069;28;20202;-69
2021/07/09 06:29:09;;;;;;;5.97;3.90;;;;;;;22.95;93.32;98392.47;5056037;28;20236;-70
2021/07/09 06:31:36;;;;;;;5.47;4.00;;;;;;;23.19;92.40;98392.78;5055500;28;20246;-70
2021/07/09 06:34:03;;;;;;;4.97;4.13;;;;;;;23.64;89.63;98392.75;5066486;28;20239;-70
2021/07/09 06:36:32;;;;;;;5.40;3.90;;;;;;;22.83;92.52;98401.97;5061841;28;20205;-70
2021/07/09 06:38:59;;;;;;;5.13;4.10;;;;;;;23.09;91.02;98398.19;5058354;28;20212;-70
2021/07/09 06:41:26;;;;;;;6.87;4.70;;;;;;;23.46;86.99;98396.88;5064866;28;20607;-69
2021/07/09 06:43:54;;;;;;;4.70;4.17;;;;;;;24.17;86.92;98400.31;5057520;28;20315;-70
2021/07/09 06:46:21;;;;;;;4.60;4.07;;;;;;;24.20;83.23;98406.03;5061138;28;20206;-70
2021/07/09 06:48:48;;;;;;;8.93;4.30;;;;;;;23.63;85.89;98408.31;5053740;28;20210;-70
2021/07/09 06:51:15;;;;;;;4.90;3.90;;;;;;;23.76;87.38;98409.66;5054147;28;20226;-70
2021/07/09 06:53:44;;;;;;;6.93;4.57;;;;;;;24.33;82.91;98420.97;5052824;28;20234;-70
2021/07/09 06:56:11;;;;;;;7.17;4.27;;;;;;;24.43;81.93;98418.22;5054297;28;20214;-70
2021/07/09 06:58:38;;;;;;;10.57;4.77;;;;;;;24.16;83.41;98423.19;5060937;28;20214;-70
2021/07/09 07:01:05;;;;;;;5.80;3.67;;;;;;;24.98;82.44;98428.88;5064446;28;20199;-70
2021/07/09 07:03:33;;;;;;;5.50;3.70;;;;;;;24.51;83.20;98423.06;5055692;28;21597;-70
2021/07/09 07:06:00;;;;;;;8.60;3.93;;;;;;;24.78;80.91;98431.72;5053485;28;20207;-71
2021/07/09 07:08:27;;;;;;;6.00;3.87;;;;;;;24.97;80.47;98433.50;5053851;28;20209;-70
2021/07/09 07:10:57;;;;;;;5.03;3.57;;;;;;;25.60;76.65;98437.16;5056943;28;20720;-70
2021/07/09 07:13:25;;;;;;;7.03;3.30;;;;;;;25.86;74.74;98433.09;5056918;28;20228;-71
2021/07/09 07:15:53;;;;;;;8.73;3.60;;;;;;;25.63;79.05;98426.47;5060201;28;20705;-70
2021/07/09 07:18:20;;;;;;;6.13;2.60;;;;;;;24.78;75.92;98429.78;5052819;28;20878;-70
2021/07/09 07:20:48;;;;;;;5.70;3.10;;;;;;;25.54;76.08;98435.59;5052025;28;20198;-70
2021/07/09 07:23:17;;;;;;;4.43;3.40;;;;;;;25.82;75.87;98432.03;5057595;28;20236;-70
2021/07/09 07:25:45;;;;;;;8.33;3.73;;;;;;;25.51;77.68;98425.22;5056633;28;20212;-71
2021/07/09 07:28:14;;;;;;;4.17;2.80;;;;;;;26.19;75.73;98430.28;5062610;28;20209;-70
2021/07/09 07:30:42;;;;;;;5.63;3.03;;;;;;;26.36;74.19;98435.31;5055751;28;20221;-70
2021/07/09 07:33:10;;;;;;;2.90;2.50;;;;;;;26.60;73.80;98438.88;5062769;28;20232;-70
2021/07/09 07:35:38;;;;;;;4.43;2.60;;;;;;;26.91;70.66;98437.38;5064220;28;20248;-68
2021/07/09 07:38:05;;;;;;;5.10;2.80;;;;;;;27.14;68.63;98447.44;5058550;28;20202;-71
2021/07/09 07:40:32;;;;;;;6.27;2.80;;;;;;;26.45;70.56;98441.78;5052065;28;20208;-70
2021/07/09 07:43:00;;;;;;;8.93;2.53;;;;;;;26.51;70.44;98440.59;5065337;28;20229;-70
2021/07/09 07:45:28;;;;;;;5.00;2.80;;;;;;;26.56;72.19;98441.38;5053542;28;20213;-69
2021/07/09 07:47:56;;;;;;;5.00;2.73;;;;;;;26.20;72.68;98442.06;5057016;28;20205;-71
2021/07/09 07:50:24;;;;;;;4.07;2.60;;;;;;;26.40;72.83;98439.09;5058453;28;20225;-70
2021/07/09 07:52:52;;;;;;;3.20;2.87;;;;;;;26.55;71.13;98445.22;5064290;28;20224;-70
2021/07/09 07:55:19;;;;;;;4.13;2.57;;;;;;;26.83;71.26;98440.75;5060597;28;20217;-71
2021/07/09 07:57:47;;;;;;;3.50;2.63;;;;;;;26.36;71.35;98444.31;5068479;28;20570;-69
2021/07/09 08:00:15;;;;;;;5.20;2.67;;;;;;;27.12;70.05;98438.69;5061185;28;20205;-68
2021/07/09 08:02:43;;;;;;;5.67;2.80;;;;;;;27.40;68.12;98448.69;5066080;28;20599;-71
2021/07/09 08:05:12;;;;;;;3.37;2.57;;;;;;;27.08;68.89;98448.63;5065177;28;20209;-71
2021/07/09 08:07:39;;;;;;;4.27;3.10;;;;;;;26.70;68.95;98446.97;5064915;28;20583;-69
2021/07/09 08:10:08;;;;;;;4.27;2.77;;;;;;;27.65;67.77;98445.53;5074225;28;20206;-71
2021/07/09 08:12:35;;;;;;;5.63;2.50;;;;;;;28.06;64.78;98449.22;5062762;28;20658;-71
2021/07/09 08:15:02;;;;;;;4.43;2.63;;;;;;;27.19;69.84;98445.47;5064385;28;20221;-71
2021/07/09 08:17:30;;;;;;;2.83;2.23;;;;;;;26.91;65.96;98451.06;5066669;28;20698;-71
2021/07/09 08:19:58;;;;;;;3.33;2.33;;;;;;;26.82;62.54;98456.38;5063551;28;20216;-71
2021/07/09 08:22:26;;;;;;;3.83;2.47;;;;;;;27.25;65.25;98433.31;5068112;28;20210;-71
2021/07/09 08:24:53;;;;;;;4.30;2.20;;;;;;;27.63;63.32;98445.88;5056439;28;20206;-70
2021/07/09 08:27:20;;;;;;;3.17;2.20;;;;;;;28.12;61.16;98448.84;5063928;28;20206;-71
2021/07/09 08:29:47;;;;;;;3.60;2.50;;;;;;;27.53;60.43;98453.44;5061989;28;20205;-71
2021/07/09 08:32:14;;;;;;;5.60;2.30;;;;;;;26.84;60.06;98454.16;5065119;28;20222;-71
2021/07/09 08:34:42;;;;;;;4.33;2.60;;;;;;;26.59;65.71;98437.22;5059541;28;20209;-71
2021/07/09 08:37:10;;;;;;;5.63;2.80;;;;;;;27.20;60.54;98458.06;5057337;28;20216;-70
2021/07/09 08:39:37;;;;;;;4.67;2.37;;;;;;;27.47;60.94;98457.38;5066380;28;20613;-69
2021/07/09 08:42:05;;;;;;;4.17;3.03;;;;;;;27.00;59.65;98460.25;5061390;28;20202;-71
2021/07/09 08:44:32;;;;;;;3.53;2.80;;;;;;;28.22;59.22;98464.31;5064687;28;20233;-68
2021/07/09 08:47:00;;;;;;;4.27;2.57;;;;;;;27.91;57.48;98469.53;5059477;28;20214;-69
2021/07/09 08:49:27;;;;;;;2.20;2.00;;;;;;;26.13;64.69;98460.72;5069798;28;20199;-70
2021/07/09 08:51:55;;;;;;;5.97;2.80;;;;;;;27.21;61.80;98459.69;5062879;28;20233;-71
2021/07/09 08:54:23;;;;;;;6.50;3.10;;;;;;;28.44;55.78;98473.53;5057202;28;20573;-71
2021/07/09 08:56:51;;;;;;;6.13;2.70;;;;;;;28.65;55.13;98477.47;5059695;28;20197;-72
2021/07/09 08:59:20;;;;;;;4.83;3.07;;;;;;;28.09;57.84;98482.41;5059195;28;20813;-71
2021/07/09 09:01:51;;;;;;;3.77;2.90;;;;;;;28.47;54.77;98486.63;5064471;28;20202;-71
2021/07/09 09:04:25;;;;;;;6.47;2.93;;;;;;;28.83;50.76;98487.53;5061087;28;20324;-72
2021/07/09 09:07:04;;;;;;;4.60;2.83;;;;;;;27.00;55.46;98480.22;5070031;28;20715;-71
2021/07/09 09:09:34;;;;;;;4.47;2.67;;;;;;;26.40;59.40;98477.44;5057991;28;20215;-71
2021/07/09 09:12:08;;;;;;;4.57;2.83;;;;;;;28.31;54.43;98490.75;5065289;28;20228;-72
2021/07/09 09:14:36;;;;;;;4.10;2.60;;;;;;;27.33;55.07;98471.03;5060928;28;20284;-73
2021/07/09 09:17:28;;;;;;;3.30;2.77;;;;;;;27.92;56.13;98486.81;5060409;28;20203;-71
2021/07/09 09:20:22;;;;;;;4.10;2.60;;;;;;;28.19;53.27;98495.09;5053606;28;20294;-71
2021/07/09 09:23:01;;;;;;;4.23;2.90;;;;;;;26.64;59.09;98483.72;5058814;28;20225;-71
2021/07/09 09:25:31;;;;;;;3.83;2.80;;;;;;;27.11;56.62;98495.41;5062631;28;20200;-71
2021/07/09 09:28:03;;;;;;;7.27;2.93;;;;;;;28.30;52.46;98496.53;5065570;28;20203;-77
2021/07/09 09:30:31;;;;;;;4.90;2.50;;;;;;;28.93;51.08;98497.50;5064487;28;20203;-76
2021/07/09 09:33:00;;;;;;;3.63;2.73;;;;;;;27.50;54.14;98500.63;5059642;28;20729;-76
2021/07/09 09:35:29;;;;;;;3.63;2.47;;;;;;;29.03;50.99;98500.06;5055620;28;20204;-76
2021/07/09 09:37:58;;;;;;;4.50;3.00;;;;;;;29.06;48.19;98505.78;5070247;28;20211;-72
2021/07/09 09:40:27;;;;;;;3.80;2.53;;;;;;;27.69;51.65;98499.53;5060032;28;20208;-74
2021/07/09 09:42:56;;;;;;;4.07;2.60;;;;;;;28.74;48.58;98508.59;5059967;28;20299;-74
2021/07/09 09:45:25;;;;;;;4.40;2.60;;;;;;;27.97;50.79;98512.22;5060535;28;20206;-72
2021/07/09 09:47:53;;;;;;;3.00;2.70;;;;;;;29.93;46.75;98511.72;5055024;28;20206;-72
2021/07/09 09:50:21;;;;;;;3.23;2.63;;;;;;;28.25;49.08;98508.44;5053625;28;20216;-72
2021/07/09 09:52:50;;;;;;;4.63;2.67;;;;;;;28.14;47.86;98511.66;5062147;28;20239;-72
2021/07/09 09:55:22;;;;;;;4.27;2.80;;;;;;;28.24;48.93;98515.06;5066113;28;20209;-73
2021/07/09 09:58:07;;;;;;;4.30;2.73;;;;;;;27.51;51.13;98500.34;5056763;28;20205;-73
2021/07/09 10:00:36;;;;;;;4.30;3.03;;;;;;;28.81;49.66;98500.78;5053791;28;20215;-74
2021/07/09 10:03:04;;;;;;;3.03;2.70;;;;;;;29.98;46.11;98495.06;5062433;28;20221;-74
2021/07/09 10:05:32;;;;;;;2.97;2.65;;;;;;;29.86;45.51;98501.16;5060150;28;20278;-71
2021/07/09 10:08:00;;;;;;;5.03;2.67;;;;;;;30.03;44.95;98505.94;5062187;28;20212;-70
2021/07/09 10:10:28;;;;;;;4.78;2.90;;;;;;;29.86;45.75;98501.16;5055556;28;20198;-71
2021/07/09 10:12:57;;;;;;;3.60;2.97;;;;;;;29.03;49.08;98495.38;5068588;28;20596;-70
2021/07/09 10:15:26;;;;;;;4.20;3.03;;;;;;;27.97;52.97;98479.31;5059547;28;20209;-73
2021/07/09 10:17:55;;;;;;;3.53;2.80;;;;;;;28.95;50.07;98490.59;5060936;28;20221;-73
2021/07/09 10:20:24;;;;;;;4.80;3.20;;;;;;;28.40;50.91;98482.66;5065915;28;20204;-73
2021/07/09 10:22:52;;;;;;;5.30;3.57;;;;;;;28.49;51.03;98497.31;5063632;28;20235;-73
2021/07/09 10:25:22;;;;;;;5.87;3.27;;;;;;;27.06;53.45;98478.25;5068456;28;20200;-72
2021/07/09 10:27:50;;;;;;;4.17;3.40;;;;;;;28.87;48.40;98487.72;5061326;28;20220;-72
2021/07/09 10:30:17;;;;;;;6.37;3.50;;;;;;;28.61;48.64;98495.69;5053498;28;20674;-72
2021/07/09 10:32:46;;;;;;;5.40;3.40;;;;;;;28.71;49.85;98495.50;5061356;28;20235;-73
2021/07/09 10:35:34;;;;;;;5.60;3.70;;;;;;;28.18;49.38;98497.03;5060731;28;20207;-71
2021/07/09 10:38:09;;;;;;;9.47;4.40;;;;;;;27.24;52.83;98486.50;5059300;28;20539;-73
2021/07/09 10:40:36;;;;;;;6.83;4.83;;;;;;;28.10;50.98;98489.50;5057015;28;20623;-73
2021/07/09 10:43:05;;;;;;;7.67;5.20;;;;;;;29.27;47.89;98495.94;5067724;28;20228;-72
2021/07/09 10:45:34;;;;;;;8.63;5.17;;;;;;;29.33;45.40;98502.13;5057967;28;20872;-73
2021/07/09 10:48:09;;;;;;;7.13;4.70;;;;;;;30.18;43.66;98502.84;5061451;28;20218;-73
2021/07/09 10:50:40;;;;;;;5.65;4.88;;;;;;;28.95;45.96;98492.50;5065029;28;20215;-72
2021/07/09 10:53:19;;;;;;;10.30;5.10;;;;;;;30.46;43.08;98498.78;5057850;28;20225;-72
2021/07/09 10:55:49;;;;;;;5.90;4.55;;;;;;;31.24;39.64;98501.50;5052767;28;20554;-73
2021/07/09 10:58:39;;;;;;;7.63;4.93;;;;;;;30.78;39.52;98503.94;5061193;28;20665;-73
2021/07/09 11:01:18;;;;;;;6.47;4.95;;;;;;;30.76;39.26;98507.03;5053935;28;20577;-76
2021/07/09 11:03:46;;;;;;;5.53;4.20;;;;;;;29.84;41.84;98497.09;5056847;28;20708;-76
2021/07/09 11:06:17;;;;;;;6.90;4.47;;;;;;;29.94;42.42;98494.09;5057198;28;20214;-72
2021/07/09 11:08:50;;;;;;;7.05;4.78;;;;;;;28.59;44.55;98497.13;5062922;28;20214;-71
2021/07/09 11:11:25;;;;;;;8.13;5.55;;;;;;;27.20;49.40;98484.63;5057511;28;20216;-72
2021/07/09 11:13:59;;;;;;;8.40;5.55;;;;;;;29.89;41.56;98489.50;5064505;28;20235;-71
2021/07/09 11:16:30;;;;;;;9.00;4.87;;;;;;;29.58;40.06;98498.81;5064159;28;20208;-71
2021/07/09 11:19:03;;;;;;;7.18;4.60;;;;;;;29.10;43.73;98490.28;5065780;28;20243;-72
2021/07/09 11:21:55;;;;;;;6.00;4.88;;;;;;;30.19;41.68;98493.44;5060955;28;20255;-72
2021/07/09 11:24:25;;;;;;;6.78;4.55;;;;;;;29.01;44.21;98499.56;5060215;28;20230;-72
2021/07/09 11:26:55;;;;;;;13.07;5.33;;;;;;;28.75;53.94;98474.53;5059457;28;20209;-70
2021/07/09 11:29:36;;;;;;;10.63;5.63;;;;;;;28.85;51.81;98468.81;5064843;28;20251;-69
2021/07/09 11:32:12;;;;;;;8.50;5.47;;;;;;;28.51;52.93;98462.94;5063234;28;20226;-69
2021/07/09 11:34:43;;;;;;;8.37;5.33;;;;;;;28.26;53.87;98463.41;5053974;28;20672;-70
2021/07/09 11:37:15;;;;;;;8.07;5.23;;;;;;;27.66;54.57;98461.72;5058235;28;20207;-69
2021/07/09 11:39:45;;;;;;;9.20;5.33;;;;;;;29.53;50.63;98449.38;5052739;28;20225;-69
2021/07/09 11:42:14;;;;;;;6.40;5.40;;;;;;;30.09;48.89;98449.63;5054260;28;20221;-69